METAR Data
IDs: Format: Raw Decoded Include TAF

Data at: 0829 UTC 07 Dec 2021

KX60 070735Z AUTO 00000KT 1/4SM FG OVC001 15/15 A3006 RMK AO2 T01530153
KX60 070715Z AUTO 00000KT 1/4SM FG OVC001 15/15 A3006 RMK AO2 T01540154
KX60 070655Z AUTO 00000KT 1/4SM FG OVC001 15/15 A3006 RMK AO2 T01520152
KX60 070635Z AUTO 00000KT 1/4SM FG OVC001 15/15 A3007 RMK AO2 T01500150
KX60 070615Z AUTO 00000KT 1/4SM FG OVC001 15/15 A3006 RMK AO2 T01490149
KX60 070555Z AUTO 00000KT 1/4SM FG OVC001 15/15 A3007 RMK AO2 T01520152 10185 20151
KX60 070535Z AUTO 00000KT 1/4SM FG OVC001 15/15 A3008 RMK AO2 LTG DSNT E AND SE T01520152
KX60 070455Z AUTO 00000KT 1/4SM FG OVC001 16/16 A3010 RMK AO2 T01570156
KX60 070435Z AUTO 00000KT 1/4SM FG OVC001 16/16 A3010 RMK AO2 T01610161
KX60 070415Z AUTO 00000KT 1/4SM FG OVC001 16/16 A3010 RMK AO2 T01640164
KX60 070355Z AUTO 00000KT 1/4SM FG OVC001 16/16 A3011 RMK AO2 T01610160
KX60 070335Z AUTO 00000KT 1/4SM FG OVC001 15/15 A3011 RMK AO2 T01540153
KX60 070315Z AUTO 00000KT 1/4SM FG OVC001 16/16 A3010 RMK AO2 T01600159
KX60 070255Z AUTO 00000KT 1/4SM FG OVC003 16/16 A3011 RMK AO2 T01640163
KX60 070235Z AUTO 00000KT 1 1/2SM BR VV007 17/17 A3010 RMK AO2 T01690168
KX60 070215Z AUTO 21003KT 5SM BR CLR 17/17 A3010 RMK AO2 T01710170
KX60 070155Z AUTO 22003KT 5SM BR CLR 17/17 A3010 RMK AO2 T01730171
KX60 070135Z AUTO 23004KT 7SM BR CLR 18/17 A3010 RMK AO2 T01760173
KX60 070115Z AUTO 23003KT 7SM BR CLR 17/17 A3010 RMK AO2 T01750172
KX60 070055Z AUTO 23004KT 10SM CLR 18/17 A3010 RMK AO2 LTG DSNT SE T01780174
KX60 070035Z AUTO 22004KT 10SM CLR 18/18 A3009 RMK AO2 T01840179
KX60 070015Z AUTO 19003KT 10SM CLR 18/17 A3009 RMK AO2 T01770171
KX60 062355Z AUTO 00000KT 10SM CLR 18/18 A3009 RMK AO2 T01810176 10272 20177 402770096
KX60 062335Z AUTO 25003KT 10SM CLR 18/18 A3008 RMK AO2 T01830175
KX60 062315Z AUTO 00000KT 10SM CLR 19/18 A3008 RMK AO2 LTG DSNT E T01930180
KX60 062255Z AUTO 00000KT 10SM SCT023 SCT036 21/18 A3008 RMK AO2 T02070182
KX60 062235Z AUTO 25004KT 10SM SCT023 BKN029 BKN038 21/18 A3009 RMK AO2
KX60 062215Z AUTO 26004KT 10SM SCT025 SCT030 BKN039 22/18 A3008 RMK AO2 LTG DSNT E T02230183
KX60 062155Z AUTO 24004KT 10SM SCT039 22/18 A3007 RMK AO2 T02240183
KX60 062135Z AUTO 24007KT 10SM SCT042 23/18 A3006 RMK AO2 T02290181
KX60 062115Z AUTO 25009KT 10SM CLR 23/18 A3006 RMK AO2 T02330179
KX60 062055Z AUTO 26009G17KT 10SM SCT030 24/17 A3006 RMK AO2 T02350174
KX60 062035Z AUTO 25012KT 10SM SCT030 24/17 A3006 RMK AO2 T02410174
KX60 062015Z AUTO 23008G15KT 200V260 10SM SCT030 25/18 A3005 RMK AO2 T02510176
KX60 061955Z AUTO 24011KT 10SM CLR 25/18 A3005 RMK AO2 T02520176
KX60 061935Z AUTO 26010G15KT 10SM CLR 24/17 A3005 RMK AO2 T02450174
KX60 061915Z AUTO 25013KT 10SM CLR 25/17 A3006 RMK AO2 T02490173
KX60 061855Z AUTO 24011KT 10SM SCT033 SCT041 26/17 A3007 RMK AO2 T02590172
KX60 061835Z AUTO 24012KT 10SM SCT037 SCT050 26/17 A3007 RMK AO2 T02570172
KX60 061815Z AUTO 22009G17KT 10SM BKN037 BKN048 26/17 A3007 RMK AO2 T02590169
KX60 061755Z AUTO 10SM BKN035 BKN046 27/18 A3008 RMK AO2 PWINO T02750176 10277 20096
KX60 061735Z AUTO 22011KT 10SM BKN033 BKN045 25/17 A3009 RMK AO2 T02550172
KX60 061715Z AUTO 21008KT 180V240 10SM BKN033 26/17 A3010 RMK AO2 T02600175
KX60 061655Z AUTO 24009KT 10SM SCT028 BKN035 25/17 A3011 RMK AO2 T02490173
KX60 061635Z AUTO 24007KT 10SM SCT027 25/18 A3012 RMK AO2 T02530183
KX60 061615Z AUTO 19007KT 10SM CLR 25/18 A3013 RMK AO2 T02470183
KX60 061555Z AUTO 21006KT 10SM CLR 24/18 A3013 RMK AO2 T02390185
KX60 061535Z AUTO 22005KT 10SM CLR 23/18 A3014 RMK AO2 T02280185
KX60 061515Z AUTO 20006KT 10SM CLR 22/18 A3015 RMK AO2 T02180182
KX60 061455Z AUTO 18007KT 10SM CLR 21/18 A3015 RMK AO2 T02070179
KX60 061435Z AUTO 16005KT 10SM SCT003 BKN045 20/17 A3015 RMK AO2 T01970174
KX60 061415Z AUTO 17005KT 10SM SCT003 SCT045 18/16 A3016 RMK AO2 T01810162
KX60 061355Z AUTO 00000KT 10SM CLR 15/15 A3015 RMK AO2 T01530146
KX60 061335Z AUTO 00000KT 10SM CLR 13/13 A3014 RMK AO2 LTG DSNT NE T01330130
KX60 061315Z AUTO 00000KT 7SM SCT002 12/11 A3014 RMK AO2 T01160114
KX60 061255Z AUTO 00000KT 7SM OVC002 10/10 A3014 RMK AO2 T01020101
KX60 061235Z AUTO 00000KT 10SM OVC002 10/10 A3014 RMK AO2 T00970096
KX60 061215Z AUTO 00000KT 1 3/4SM BR OVC002 10/10 A3014 RMK AO2 VIS 1/2V5 T00970096
KX60 061155Z AUTO 00000KT 3/4SM BR OVC002 10/10 A3014 RMK AO2 T00980097 10118 20096
KX60 061135Z AUTO 00000KT 7SM OVC002 10/10 A3013 RMK AO2 T00980097
KX60 061115Z AUTO 00000KT 7SM BKN002 10/10 A3013 RMK AO2 T00980097
KX60 061055Z AUTO 00000KT 10SM SCT002 10/10 A3012 RMK AO2 T00990097
KX60 061035Z AUTO 00000KT 10SM SCT002 10/10 A3012 RMK AO2 T01000096
KX60 061015Z AUTO 00000KT 10SM CLR 10/10 A3011 RMK AO2 T01020099
KX60 060955Z AUTO 00000KT 10SM CLR 10/10 A3011 RMK AO2 T01010099
KX60 060935Z AUTO 00000KT 10SM CLR 10/10 A3012 RMK AO2 T01030097
KX60 060915Z AUTO 00000KT 10SM CLR 10/10 A3012 RMK AO2 T01020099
KX60 060855Z AUTO 00000KT 10SM CLR 10/10 A3011 RMK AO2 T01050103
KX60 060835Z AUTO 00000KT 10SM CLR 11/10 A3011 RMK AO2 T01060105
KX60 060815Z AUTO 00000KT 10SM CLR 11/10 A3011 RMK AO2 T01060104
KX60 060755Z AUTO 00000KT 10SM CLR 11/11 A3011 RMK AO2 T01070105
KX60 060735Z AUTO 00000KT 10SM CLR 11/11 A3011 RMK AO2 T01080107
KX60 060715Z AUTO 00000KT 7SM CLR 11/11 A3012 RMK AO2 T01090108
KX60 060655Z AUTO 00000KT 5SM BR CLR 11/11 A3012 RMK AO2 T01080107
KX60 060635Z AUTO 00000KT 10SM CLR 11/11 A3013 RMK AO2 T01120110
KX60 060615Z AUTO 00000KT 10SM SCT050 11/11 A3014 RMK AO2 T01120110
KX60 060555Z AUTO 00000KT 7SM BR SCT050 11/11 A3015 RMK AO2 T01120110 10159 20111
KX60 060535Z AUTO 00000KT 10SM SCT050 11/11 A3015 RMK AO2 T01150113
KX60 060515Z AUTO 00000KT 5SM BR SCT050 11/11 A3015 RMK AO2 T01120110
KX60 060455Z AUTO 00000KT 7SM CLR 12/12 A3016 RMK AO2 T01200118
KX60 060435Z AUTO 00000KT 10SM CLR 12/11 A3016 RMK AO2 T01160114
KX60 060415Z AUTO 00000KT 10SM CLR 12/12 A3017 RMK AO2 T01220119
KX60 060355Z AUTO 10004KT 10SM CLR 12/12 A3017 RMK AO2 T01200116
KX60 060335Z AUTO 00000KT 10SM CLR 12/12 A3017 RMK AO2 T01240122
KX60 060315Z AUTO 00000KT 7SM SCT050 12/12 A3016 RMK AO2 T01240121
KX60 060255Z AUTO 00000KT 10SM CLR 13/12 A3016 RMK AO2 T01260122
KX60 060235Z AUTO 00000KT 10SM CLR 12/12 A3016 RMK AO2 T01230117
KX60 060215Z AUTO 00000KT 10SM CLR 13/13 A3016 RMK AO2 T01330127
KX60 060155Z AUTO 00000KT 10SM CLR 14/13 A3015 RMK AO2 T01350130
KX60 060135Z AUTO 00000KT 10SM CLR 14/13 A3015 RMK AO2 T01370133
KX60 060115Z AUTO 00000KT 10SM CLR 14/13 A3014 RMK AO2 T01390132
KX60 060055Z AUTO 00000KT 4SM BR CLR 15/14 A3014 RMK AO2 T01460137
KX60 060035Z AUTO 00000KT 10SM CLR 15/14 A3014 RMK AO2 T01500141
KX60 060015Z AUTO 00000KT 10SM CLR 15/14 A3013 RMK AO2 T01530140
KX60 052355Z AUTO 00000KT 10SM CLR 16/14 A3013 RMK AO2 T01610144 10256 20156 402560073
KX60 052335Z AUTO 00000KT 10SM CLR 16/14 A3012 RMK AO2 T01570144
KX60 052315Z AUTO 00000KT 10SM CLR 17/15 A3012 RMK AO2 T01700150
KX60 052255Z AUTO 00000KT 10SM CLR 18/15 A3012 RMK AO2 T01790155
KX60 052235Z AUTO 00000KT 10SM CLR 20/15 A3012 RMK AO2 T01960154
KX60 052215Z AUTO 32003KT 10SM CLR 21/15 A3011 RMK AO2 T02090152
KX60 052155Z AUTO 28004KT 10SM CLR 23/14 A3011 RMK AO2 T02330143
KX60 052135Z AUTO 24003KT 10SM CLR 24/14 A3011 RMK AO2 T02440140
KX60 052115Z AUTO 27003KT 10SM CLR 25/14 A3011 RMK AO2 T02460137
KX60 052055Z AUTO 28004KT 10SM CLR 25/14 A3011 RMK AO2 T02500136
KX60 052035Z AUTO 00000KT 10SM CLR 25/13 A3011 RMK AO2 T02470134